Overview Statistics Trail Chart Weather Telemetry Raw packets
 

This is the latest recevied weather packets stored in our database for station/object HS3UAA-1. If no packets are shown the sender has not sent any weather packets the latest 10 day(s).

<< 95 96 97 98 99 100 101 >>
Time Temp. Humidity Pressure Rain* Wind** Luminosity Snow
1787871056 33.33° C 49% 995 hPa - - 0 W/m² -
1787870734 33.33° C 49% 995 hPa - - 0 W/m² -
1787870412 33.33° C 49% 995 hPa - - 0 W/m² -
1787870090 32.78° C 49% 995 hPa - - 0 W/m² -
1787869768 32.78° C 51% 995 hPa - - 0 W/m² -
1787869446 32.78° C 50% 995 hPa - - 0 W/m² -
1787869124 32.78° C 50% 995 hPa - - 0 W/m² -
1787868802 32.78° C 49% 995 hPa - - 0 W/m² -
1787868480 32.78° C 50% 995 hPa - - 0 W/m² -
1787868157 32.78° C 49% 995 hPa - - 0 W/m² -
1787867835 33.33° C 48% 995 hPa - - 0 W/m² -
1787867513 32.78° C 49% 995 hPa - - 0 W/m² -
1787867191 33.33° C 49% 995 hPa - - 0 W/m² -
1787866869 33.33° C 49% 995 hPa - - 0 W/m² -
1787866547 33.33° C 49% 995 hPa - - 0 W/m² -
1787866225 33.33° C 49% 995 hPa - - 0 W/m² -
1787865903 33.33° C 48% 995 hPa - - 0 W/m² -
1787865581 33.33° C 48% 995 hPa - - 0 W/m² -
1787865259 32.78° C 49% 995 hPa - - 0 W/m² -
1787864937 33.89° C 47% 995 hPa - - 0 W/m² -
1787864615 32.78° C 50% 995 hPa - - 0 W/m² -
1787864293 33.33° C 49% 995 hPa - - 0 W/m² -
1787863971 33.89° C 47% 995 hPa - - 0 W/m² -
1787863649 32.78° C 50% 995 hPa - - 0 W/m² -
1787863327 33.33° C 48% 995 hPa - - 0 W/m² -

* Rain since midnight (hover to see other rain measurements)
** Current wind speed in m/s (hover to see current wind gust speed)